Latest Weather Observations for Legendre Island

IDW60801

Issued at 2:04 pm WST Monday 20 February 2017 (issued every 30 minutes, with the page automatically refreshed every 10 minutes)

About weather observations | Map of weather stations | Latest weather observations for WA | Other Formats
Station Details ID: 004095 Name: LEGENDRE ISLAND Lat: -20.36 Lon: 116.84 Height: 29.0 m
Data from the previous 72 hours. | See also: Recent months at Legendre Island
Date/Time
WST
Temp
°C
App
Temp
°C
Dew
Point
°C
Rel
Hum
%
Delta-T
°C
Wind Press
QNH
hPa
Press
MSL
hPa
Rain since
9am
mm
Dir  Spd
km/h
Gust
km/h
Spd
kts
Gust
kts
20/02:00pm 32.1 39.4 30.6 92 1.1 W 17 20 9 11 1007.9 1007.7 -
20/01:30pm 31.8 38.7 30.1 91 1.3 W 17 20 9 11 1008.1 1007.9 -
20/01:00pm 31.9 39.0 30.4 92 1.1 W 17 24 9 13 1008.4 1008.2 -
20/12:30pm 32.6 40.1 30.9 91 1.3 W 17 20 9 11 1008.8 1008.6 -
20/12:00pm 32.3 40.1 30.8 92 1.1 W 15 20 8 11 1009.2 1009.0 -
20/11:30am 31.7 39.3 30.6 94 0.8 W 15 22 8 12 1009.5 1009.3 -
20/11:00am 31.5 39.1 30.6 95 0.7 W 15 19 8 10 1009.6 1009.4 -
20/10:30am 31.9 40.2 31.4 97 0.4 W 15 20 8 11 1009.8 1009.6 -
20/10:00am 31.3 39.4 31.1 99 0.2 W 15 20 8 11 1010.1 1009.9 -
20/09:30am 31.1 39.2 31.1 100 0.0 W 15 19 8 10 1010.1 1009.9 -
20/09:00am 30.2 37.9 30.2 100 0.0 W 13 17 7 9 1010.2 1010.0 -
20/08:30am 30.5 38.1 30.5 100 0.0 W 15 19 8 10 1010.1 1009.9 -
20/08:00am 29.9 36.2 29.9 100 0.0 W 19 22 10 12 1010.0 1009.8 -
20/07:30am 29.6 36.1 29.6 100 0.0 WSW 17 20 9 11 1010.1 1009.9 -
20/07:00am 28.6 33.9 28.6 100 0.0 WSW 19 22 10 12 1010.0 1009.8 -
20/06:30am 28.4 33.4 28.4 100 0.0 WSW 20 24 11 13 1009.8 1009.6 -
20/06:00am 28.1 32.9 28.1 100 0.0 WSW 20 24 11 13 1009.4 1009.2 -
20/05:30am 28.1 32.1 28.1 100 0.0 WSW 24 30 13 16 1009.1 1008.9 -
20/05:00am 28.0 31.9 28.0 100 0.0 WSW 24 30 13 16 1008.7 1008.5 -
20/04:30am 28.1 32.1 28.1 100 0.0 WSW 24 28 13 15 1008.9 1008.7 -
20/04:00am 28.1 32.9 28.1 100 0.0 WSW 20 24 11 13 1008.7 1008.5 -
20/03:30am 28.2 33.0 28.2 100 0.0 WSW 20 24 11 13 1008.8 1008.6 -
20/03:00am 28.3 33.2 28.3 100 0.0 WSW 20 24 11 13 1008.8 1008.6 -
20/02:30am 28.3 33.2 28.3 100 0.0 WSW 20 24 11 13 1009.0 1008.8 -
20/02:00am 28.5 33.7 28.5 100 0.0 WSW 19 22 10 12 1009.3 1009.1 -
20/01:30am 28.6 33.3 28.6 100 0.0 SW 22 28 12 15 1009.3 1009.1 -
20/01:00am 28.5 33.5 28.5 100 0.0 WSW 20 24 11 13 1009.6 1009.4 -
20/12:30am 28.6 33.0 28.6 100 0.0 SW 24 30 13 16 1009.7 1009.5 -
20/12:00am 28.5 32.8 28.5 100 0.0 SW 24 30 13 16 1009.9 1009.7 -
 
Date/Time
WST
Temp
°C
App
Temp
°C
Dew
Point
°C
Rel
Hum
%
Delta-T
°C
Wind Press
QNH
hPa
Press
MSL
hPa
Rain since
9am
mm
Dir  Spd
km/h
Gust
km/h
Spd
kts
Gust
kts
19/11:30pm 28.5 33.5 28.5 100 0.0 SW 20 26 11 14 1009.6 1009.4 -
19/11:00pm 28.4 33.4 28.4 100 0.0 SW 20 22 11 12 1009.7 1009.5 -
19/10:30pm 28.4 33.4 28.4 100 0.0 SW 20 24 11 13 1009.7 1009.5 -
19/10:00pm 28.5 33.7 28.5 100 0.0 WSW 19 20 10 11 1009.6 1009.4 -
19/09:30pm 28.5 33.7 28.5 100 0.0 WSW 19 20 10 11 1009.5 1009.3 -
19/09:00pm 28.6 34.3 28.6 100 0.0 WSW 17 20 9 11 1009.5 1009.3 -
19/08:30pm 28.6 35.1 28.6 100 0.0 W 13 17 7 9 1009.4 1009.2 -
19/08:00pm 28.8 35.4 28.8 100 0.0 WNW 13 15 7 8 1009.2 1009.0 -
19/07:30pm 28.9 35.6 28.9 100 0.0 WNW 13 17 7 9 1008.9 1008.7 -
19/07:00pm 29.2 35.9 28.9 98 0.2 WNW 13 17 7 9 1008.6 1008.4 -
19/06:30pm 29.8 35.7 28.4 92 1.0 NW 15 17 8 9 1008.3 1008.1 -
19/06:00pm 30.5 35.7 27.9 86 1.9 NW 17 19 9 10 1008.2 1008.0 -
19/05:30pm 30.8 35.9 27.8 84 2.2 NW 17 19 9 10 1008.3 1008.1 -
19/05:00pm 31.1 35.9 27.4 81 2.7 NW 17 19 9 10 1008.2 1008.0 -
19/04:30pm 31.6 37.0 27.7 80 2.8 NW 15 20 8 11 1008.2 1008.0 -
19/04:00pm 31.4 36.4 27.1 78 3.1 NW 15 19 8 10 1008.5 1008.3 -
19/03:30pm 31.6 36.8 27.9 81 2.7 NW 17 20 9 11 1008.7 1008.5 -
19/03:00pm 31.7 37.3 28.0 81 2.7 NNW 15 19 8 10 1008.9 1008.7 -
19/02:30pm 32.2 37.9 28.1 79 3.0 NNW 15 19 8 10 1009.3 1009.1 -
19/02:00pm 31.5 36.8 27.6 80 2.8 NNW 15 19 8 10 1009.6 1009.4 -
19/01:30pm 31.8 36.7 27.0 76 3.5 NNW 15 17 8 9 1009.8 1009.6 -
19/01:00pm 31.7 37.4 27.6 79 3.0 NNW 13 17 7 9 1010.0 1009.8 -
19/12:30pm 31.1 37.6 28.1 84 2.2 NNW 11 13 6 7 1010.1 1009.9 -
19/12:00pm 31.6 38.1 28.1 82 2.6 N 11 13 6 7 1010.5 1010.3 -
19/11:30am 31.3 38.6 28.7 86 1.9 N 9 13 5 7 1010.7 1010.5 -
19/11:00am 31.2 38.4 28.6 86 1.9 N 9 13 5 7 1010.9 1010.7 -
19/10:30am 30.6 37.5 28.2 87 1.8 N 9 13 5 7 1011.3 1011.1 -
19/10:00am 32.0 38.0 26.1 71 4.2 S 6 11 3 6 1011.6 1011.4 -
19/09:30am 31.3 37.6 27.4 80 2.8 S 9 15 5 8 1011.8 1011.6 -
19/09:00am 31.3 39.4 29.7 91 1.2 S 9 13 5 7 1012.1 1011.9 -
19/08:30am 30.5 37.7 29.6 95 0.7 SSW 13 19 7 10 1012.1 1011.9 -
19/08:00am 29.3 36.3 29.3 100 0.0 SSW 13 17 7 9 1012.1 1011.9 -
19/07:30am 28.8 35.4 28.8 100 0.0 SW 13 15 7 8 1011.9 1011.7 -
19/07:00am 28.2 34.4 28.2 100 0.0 SW 13 17 7 9 1011.9 1011.7 -
19/06:30am 27.4 33.0 27.4 100 0.0 SW 13 15 7 8 1011.6 1011.4 -
19/06:00am 27.2 32.6 27.2 100 0.0 WSW 13 15 7 8 1011.4 1011.2 -
19/05:30am 27.1 32.8 27.1 100 0.0 WSW 11 13 6 7 1011.1 1010.9 -
19/05:00am 27.0 33.1 27.0 100 0.0 WSW 9 13 5 7 1010.7 1010.5 -
19/04:30am 27.1 32.8 27.1 100 0.0 WSW 11 13 6 7 1010.6 1010.4 -
19/04:00am 27.2 33.0 27.2 100 0.0 W 11 15 6 8 1010.6 1010.4 -
19/03:30am 27.3 32.4 27.3 100 0.0 W 15 17 8 9 1010.4 1010.2 -
19/03:00am 27.3 32.4 27.3 100 0.0 W 15 19 8 10 1010.5 1010.3 -
19/02:30am 27.4 33.0 27.4 100 0.0 WNW 13 19 7 10 1010.7 1010.5 -
19/02:00am 27.4 33.4 27.4 100 0.0 WNW 11 13 6 7 1010.7 1010.5 -
19/01:30am 27.5 33.5 27.5 100 0.0 WNW 11 13 6 7 1010.9 1010.7 -
19/01:00am 27.6 33.7 27.6 100 0.0 WNW 11 15 6 8 1011.1 1010.9 -
19/12:30am 27.6 33.7 27.6 100 0.0 NW 11 15 6 8 1011.1 1010.9 -
19/12:00am 27.7 33.5 27.7 100 0.0 NW 13 17 7 9 1011.2 1011.0 -
 
Date/Time
WST
Temp
°C
App
Temp
°C
Dew
Point
°C
Rel
Hum
%
Delta-T
°C
Wind Press
QNH
hPa
Press
MSL
hPa
Rain since
9am
mm
Dir  Spd
km/h
Gust
km/h
Spd
kts
Gust
kts
18/11:30pm 27.8 34.0 27.8 100 0.0 NW 11 15 6 8 1011.3 1011.1 -
18/11:00pm 27.9 35.2 27.9 100 0.0 NNW 6 11 3 6 1011.7 1011.5 -
18/10:30pm 27.9 35.0 27.9 100 0.0 N 7 20 4 11 1012.2 1012.0 -
18/10:00pm 28.1 32.5 28.1 100 0.0 N 22 26 12 14 1011.2 1011.0 -
18/09:30pm 28.1 32.5 28.1 100 0.0 N 22 26 12 14 1011.4 1011.2 -
18/09:00pm 28.2 32.6 28.2 100 0.0 N 22 24 12 13 1010.9 1010.7 -
18/08:30pm 28.3 32.4 28.3 100 0.0 N 24 28 13 15 1010.7 1010.5 -
18/08:00pm 28.3 32.1 28.3 100 0.0 N 26 30 14 16 1010.2 1010.0 -
18/07:30pm 28.3 31.7 28.3 100 0.0 N 28 32 15 17 1009.7 1009.5 -
18/07:00pm 28.4 31.5 28.4 100 0.0 N 30 33 16 18 1009.3 1009.1 -
18/06:30pm 28.6 31.8 28.6 100 0.0 N 30 33 16 18 1009.1 1008.9 -
18/06:00pm 28.9 32.7 28.9 100 0.0 N 28 33 15 18 1008.9 1008.7 -
18/05:30pm 29.1 33.5 29.1 100 0.0 NNE 26 30 14 16 1008.8 1008.6 -
18/05:00pm 29.2 34.4 29.2 100 0.0 NNE 22 24 12 13 1009.0 1008.8 -
18/04:30pm 30.1 34.5 28.1 89 1.5 NNE 22 24 12 13 1009.2 1009.0 -
18/04:00pm 30.7 35.4 28.5 88 1.6 NNE 22 26 12 14 1009.4 1009.2 -
18/03:30pm 31.0 35.3 28.0 84 2.2 NE 22 26 12 14 1009.5 1009.3 -
18/03:00pm 31.4 36.7 28.8 86 1.9 NE 20 24 11 13 1009.7 1009.5 -
18/02:30pm 31.3 37.2 28.9 87 1.8 NE 17 20 9 11 1010.1 1009.9 -
18/02:00pm 31.1 36.3 28.5 86 1.9 NE 19 22 10 12 1010.4 1010.2 -
18/01:30pm 31.6 37.2 29.2 87 1.8 NE 20 22 11 12 1010.7 1010.5 -
18/01:00pm 31.3 36.3 28.5 85 2.1 ENE 20 24 11 13 1011.0 1010.8 -
18/12:30pm 31.4 36.8 29.4 89 1.5 NE 22 24 12 13 1011.1 1010.9 -
18/12:00pm 31.0 35.8 29.2 90 1.3 ENE 24 28 13 15 1011.2 1011.0 -
18/11:30am 30.9 35.9 28.9 89 1.5 ENE 22 26 12 14 1011.4 1011.2 -
18/11:00am 30.5 35.2 29.0 92 1.1 ENE 24 28 13 15 1011.7 1011.5 -
18/10:30am 31.3 36.2 29.3 89 1.5 ENE 24 28 13 15 1012.0 1011.8 -
18/10:00am 30.8 35.5 29.0 90 1.3 ENE 24 28 13 15 1011.9 1011.7 -
18/09:30am 30.3 35.1 29.2 94 0.8 ENE 24 28 13 15 1012.1 1011.9 -
18/09:00am 30.6 35.1 28.8 90 1.3 ENE 24 28 13 15 1011.8 1011.6 -
18/08:30am 30.3 35.3 29.4 95 0.7 ENE 24 26 13 14 1011.5 1011.3 -
18/08:00am 29.7 34.9 29.7 100 0.0 E 24 28 13 15 1011.3 1011.1 -
18/07:30am 29.2 34.0 29.2 100 0.0 E 24 30 13 16 1011.1 1010.9 -
18/07:00am 28.5 32.8 28.5 100 0.0 E 24 26 13 14 1010.6 1010.4 -
18/06:30am 28.0 31.9 28.0 100 0.0 ENE 24 26 13 14 1010.3 1010.1 -
18/06:00am 27.9 31.7 27.9 100 0.0 ENE 24 28 13 15 1009.8 1009.6 -
18/05:30am 27.9 32.1 27.9 100 0.0 ENE 22 26 12 14 1009.5 1009.3 -
18/05:00am 27.9 32.7 27.9 100 0.0 ENE 19 22 10 12 1009.5 1009.3 -
18/04:30am 27.9 32.5 27.9 100 0.0 E 20 24 11 13 1009.3 1009.1 -
18/04:00am 27.9 32.5 27.9 100 0.0 E 20 24 11 13 1009.0 1008.8 -
18/03:30am 27.8 32.5 27.8 100 0.0 E 19 20 10 11 1009.0 1008.8 -
18/03:00am 27.8 32.9 27.8 100 0.0 ENE 17 19 9 10 1009.1 1008.9 -
18/02:30am 27.9 32.7 27.9 100 0.0 ENE 19 22 10 12 1009.0 1008.8 -
18/02:00am 27.9 33.1 27.9 100 0.0 ENE 17 22 9 12 1009.3 1009.1 -
18/01:30am 28.0 32.9 28.0 100 0.0 ENE 19 20 10 11 1009.4 1009.2 -
18/01:00am 28.1 33.4 28.1 100 0.0 ENE 17 20 9 11 1009.6 1009.4 -
18/12:30am 28.1 33.4 28.1 100 0.0 ENE 17 20 9 11 1009.8 1009.6 -
18/12:00am 28.1 32.9 28.1 100 0.0 ENE 20 24 11 13 1009.9 1009.7 -
 
Date/Time
WST
Temp
°C
App
Temp
°C
Dew
Point
°C
Rel
Hum
%
Delta-T
°C
Wind Press
QNH
hPa
Press
MSL
hPa
Rain since
9am
mm
Dir  Spd
km/h
Gust
km/h
Spd
kts
Gust
kts
17/11:30pm 28.1 33.0 28.1 100 0.0 ENE 19 24 10 13 1009.9 1009.7 -
17/11:00pm 28.1 32.1 28.1 100 0.0 NE 24 30 13 16 1009.7 1009.5 -
17/10:30pm 28.3 32.1 28.3 100 0.0 NE 26 32 14 17 1009.4 1009.2 -
17/10:00pm 28.2 30.7 28.2 100 0.0 NE 32 35 17 19 1009.0 1008.8 -
17/09:30pm 28.2 30.6 28.2 100 0.0 NE 33 39 18 21 1008.8 1008.6 -
17/09:00pm 28.3 30.0 28.3 100 0.0 NNE 37 43 20 23 1008.4 1008.2 -
17/08:30pm 28.4 29.8 28.4 100 0.0 NNE 39 46 21 25 1008.4 1008.2 -
17/08:00pm 28.4 29.8 28.4 100 0.0 NNE 39 43 21 23 1008.0 1007.8 -
17/07:30pm 28.6 30.9 28.6 100 0.0 NNE 35 43 19 23 1008.0 1007.8 -
17/07:00pm 28.6 30.9 28.6 100 0.0 NNE 35 41 19 22 1007.4 1007.2 -
17/06:30pm 28.7 30.3 28.7 100 0.0 NNE 39 46 21 25 1006.8 1006.6 -
17/06:00pm 28.9 29.9 28.9 100 0.0 NE 43 48 23 26 1006.0 1005.8 -
17/05:30pm 29.4 29.8 29.4 100 0.0 NE 48 54 26 29 1005.7 1005.5 -
17/05:00pm 29.8 31.5 29.8 100 0.0 NE 43 50 23 27 1005.6 1005.4 -
17/04:30pm 30.2 32.8 30.0 99 0.1 NE 39 46 21 25 1005.9 1005.7 -
17/04:00pm 30.5 32.6 29.8 96 0.5 NE 41 48 22 26 1006.0 1005.8 -
17/03:30pm 31.0 32.2 28.2 85 2.0 NE 39 44 21 24 1006.3 1006.1 -
17/03:00pm 31.3 33.9 28.3 84 2.2 NE 32 35 17 19 1006.8 1006.6 -
17/02:30pm 31.8 33.3 27.0 76 3.5 NE 33 37 18 20 1007.1 1006.9 -

Other Formats:

Comma delimited format used in spreadsheet applications
http://www.bom.gov.au/fwo/IDW60801/IDW60801.94307.axf

JavaScript Object Notation format (JSON) in row-major order
http://www.bom.gov.au/fwo/IDW60801/IDW60801.94307.json